createdAt,value
2022-11-25T00:01:40.874Z,15.67
2022-11-25T00:04:09.779Z,13.23
2022-11-25T00:06:38.435Z,16.30
2022-11-25T00:09:08.980Z,12.13
2022-11-25T00:11:40.615Z,17.53
2022-11-25T00:14:12.411Z,20.83
2022-11-25T00:16:45.195Z,18.00
2022-11-25T00:19:17.442Z,19.10
2022-11-25T00:21:46.619Z,22.57
2022-11-25T00:24:17.065Z,17.47
2022-11-25T00:26:46.929Z,23.77
2022-11-25T00:29:15.651Z,22.33
2022-11-25T00:31:46.570Z,18.43
2022-11-25T00:34:15.770Z,17.63
2022-11-25T00:36:44.297Z,18.67
2022-11-25T00:39:14.800Z,19.93
2022-11-25T00:42:00.954Z,13.97
2022-11-25T00:44:37.826Z,13.67
2022-11-25T00:47:11.727Z,23.77
2022-11-25T00:49:42.115Z,20.00
2022-11-25T00:52:14.158Z,19.37
2022-11-25T00:54:42.434Z,20.87
2022-11-25T00:57:10.828Z,17.63
2022-11-25T00:59:41.575Z,16.93
2022-11-25T01:02:12.206Z,15.73
2022-11-25T01:04:40.871Z,24.73
2022-11-25T01:07:09.412Z,18.87
2022-11-25T01:09:38.762Z,15.73
2022-11-25T01:12:08.805Z,26.63
2022-11-25T01:14:37.837Z,26.93
2022-11-25T01:17:07.955Z,11.57
2022-11-25T01:19:40.398Z,18.67
2022-11-25T01:22:09.714Z,10.93
2022-11-25T01:24:38.542Z,18.63
2022-11-25T01:27:07.210Z,23.23
2022-11-25T01:29:35.676Z,19.27
2022-11-25T01:32:03.994Z,20.67
2022-11-25T01:34:35.240Z,15.43
2022-11-25T01:37:04.475Z,11.80
2022-11-25T01:39:33.482Z,17.47
2022-11-25T01:42:02.859Z,20.20
2022-11-25T01:44:33.713Z,19.83
2022-11-25T01:47:13.864Z,21.10
2022-11-25T01:49:49.410Z,18.17
2022-11-25T01:52:24.365Z,17.10
2022-11-25T01:54:58.333Z,23.23
2022-11-25T01:57:30.900Z,16.50
2022-11-25T02:00:02.417Z,11.93
2022-11-25T02:02:33.889Z,16.53
2022-11-25T02:05:08.266Z,12.73
2022-11-25T02:07:38.832Z,19.43
2022-11-25T02:10:12.766Z,17.17
2022-11-25T02:12:47.017Z,17.93
2022-11-25T02:15:17.574Z,15.33
2022-11-25T02:17:47.012Z,15.90
2022-11-25T02:20:19.457Z,22.53
2022-11-25T02:22:59.176Z,19.83
2022-11-25T02:25:32.833Z,13.90
2022-11-25T02:28:04.369Z,11.27
2022-11-25T02:30:33.523Z,13.80
2022-11-25T02:33:02.696Z,12.97
2022-11-25T02:35:34.501Z,22.37
2022-11-25T02:38:10.077Z,21.27
2022-11-25T02:40:47.049Z,18.90
2022-11-25T02:43:16.530Z,16.27
2022-11-25T02:45:59.693Z,18.30
2022-11-25T02:49:00.750Z,24.27
2022-11-25T02:51:23.293Z,17.77
2022-11-25T02:53:52.094Z,22.03
2022-11-25T02:56:25.883Z,15.70
2022-11-25T02:58:55.188Z,21.07
2022-11-25T03:01:26.714Z,21.27
2022-11-25T03:03:55.294Z,17.37
2022-11-25T03:06:24.022Z,14.97
2022-11-25T03:08:54.683Z,17.20
2022-11-25T03:11:45.467Z,18.40
2022-11-25T03:14:15.121Z,15.53
2022-11-25T03:16:44.921Z,23.17
2022-11-25T03:19:13.573Z,19.93
2022-11-25T03:21:42.524Z,18.07
2022-11-25T03:24:11.337Z,18.47
2022-11-25T03:26:41.505Z,26.10
2022-11-25T03:29:10.166Z,18.83
2022-11-25T03:31:40.714Z,21.60
2022-11-25T03:34:12.474Z,14.63
2022-11-25T03:36:41.083Z,18.83
2022-11-25T03:39:10.978Z,22.30
2022-11-25T03:41:41.385Z,18.77
2022-11-25T03:44:09.892Z,14.23
2022-11-25T03:46:38.825Z,18.70
2022-11-25T03:49:08.871Z,18.30
2022-11-25T03:51:37.684Z,12.83
2022-11-25T03:54:06.788Z,15.47
2022-11-25T03:56:59.530Z,18.50
2022-11-25T03:59:29.002Z,17.73
2022-11-25T04:01:57.734Z,21.27
2022-11-25T04:04:26.515Z,18.73
2022-11-25T04:06:55.491Z,26.33
2022-11-25T04:09:25.871Z,22.60
2022-11-25T04:12:14.496Z,19.70
2022-11-25T04:14:57.163Z,18.10
2022-11-25T04:17:25.824Z,19.93
2022-11-25T04:19:54.454Z,16.73
2022-11-25T04:22:23.127Z,21.20
2022-11-25T04:24:53.602Z,22.03
2022-11-25T04:27:27.932Z,20.27
2022-11-25T04:29:56.577Z,24.13
2022-11-25T04:32:27.288Z,22.30
2022-11-25T04:34:56.006Z,23.60
2022-11-25T04:37:25.778Z,14.43
2022-11-25T04:39:56.070Z,26.13
2022-11-25T04:42:34.836Z,24.20
2022-11-25T04:45:24.979Z,24.50
2022-11-25T04:47:56.030Z,19.17
2022-11-25T04:50:26.132Z,22.97
2022-11-25T04:53:12.394Z,16.97
2022-11-25T04:55:41.776Z,23.67
2022-11-25T04:58:36.896Z,21.37
2022-11-25T05:01:06.931Z,14.43
2022-11-25T05:03:36.536Z,17.13
2022-11-25T05:06:07.559Z,18.63
2022-11-25T05:08:38.049Z,14.27
2022-11-25T05:11:07.258Z,11.67
2022-11-25T05:13:36.210Z,18.23
2022-11-25T05:16:04.775Z,17.17
2022-11-25T05:18:34.935Z,14.10
2022-11-25T05:21:04.312Z,17.50
2022-11-25T05:23:38.587Z,17.13
2022-11-25T05:26:07.223Z,14.77
2022-11-25T05:28:42.414Z,10.40
2022-11-25T05:31:13.299Z,15.10
2022-11-25T05:33:43.787Z,13.83
2022-11-25T05:36:12.805Z,16.10
2022-11-25T05:38:47.275Z,9.80
2022-11-25T05:41:21.706Z,11.43
2022-11-25T05:43:51.960Z,9.47
2022-11-25T05:46:21.052Z,13.60
2022-11-25T05:48:57.153Z,14.03
2022-11-25T05:51:26.911Z,18.80
2022-11-25T05:53:57.474Z,15.47
2022-11-25T05:56:30.621Z,12.60
2022-11-25T05:59:17.840Z,10.80
2022-11-25T06:01:59.702Z,17.53
2022-11-25T06:04:29.987Z,8.53
2022-11-25T06:06:58.670Z,17.17
2022-11-25T06:09:27.403Z,9.30
2022-11-25T06:11:57.652Z,13.83
2022-11-25T06:14:26.208Z,15.03
2022-11-25T06:16:55.353Z,12.60
2022-11-25T06:19:33.852Z,16.90
2022-11-25T06:22:02.672Z,15.40
2022-11-25T06:24:31.925Z,12.27
2022-11-25T06:27:05.975Z,14.77
2022-11-25T06:29:35.969Z,13.27
2022-11-25T06:32:05.357Z,17.70
2022-11-25T06:34:43.029Z,18.93
2022-11-25T06:37:30.573Z,15.97
2022-11-25T06:39:59.291Z,18.30
2022-11-25T06:42:27.988Z,21.37
2022-11-25T06:44:57.091Z,14.73
2022-11-25T06:47:26.303Z,18.23
2022-11-25T06:49:56.506Z,18.40
2022-11-25T06:52:25.185Z,17.43
2022-11-25T06:54:54.217Z,18.73
2022-11-25T06:57:22.721Z,16.87
2022-11-25T06:59:51.908Z,22.10
2022-11-25T07:02:20.866Z,18.57
2022-11-25T07:04:49.459Z,28.27
2022-11-25T07:07:19.531Z,23.47
2022-11-25T07:09:48.781Z,21.07
2022-11-25T07:12:17.281Z,22.77
2022-11-25T07:14:46.228Z,18.10
2022-11-25T07:17:14.659Z,20.97
2022-11-25T07:19:43.339Z,13.17
2022-11-25T07:22:11.738Z,22.33
2022-11-25T07:24:41.843Z,16.23
2022-11-25T07:27:10.497Z,14.83
2022-11-25T07:32:27.307Z,20.43
2022-11-25T07:34:56.396Z,19.50
2022-11-25T07:37:25.373Z,24.37
2022-11-25T07:39:55.235Z,18.40
2022-11-25T07:42:23.567Z,18.63
2022-11-25T07:44:51.914Z,20.37
2022-11-25T07:47:42.912Z,18.57
2022-11-25T07:50:12.285Z,20.43
2022-11-25T07:52:42.061Z,15.17
2022-11-25T07:55:11.974Z,26.77
2022-11-25T07:57:40.750Z,27.97
2022-11-25T08:00:10.787Z,25.67
2022-11-25T08:02:42.166Z,20.77
2022-11-25T08:05:11.906Z,16.03
2022-11-25T08:07:40.340Z,27.90
2022-11-25T08:10:10.163Z,24.73
2022-11-25T08:12:40.331Z,27.33
2022-11-25T08:15:10.367Z,17.67
2022-11-25T08:17:39.378Z,19.97
2022-11-25T08:20:09.242Z,19.40
2022-11-25T08:22:39.337Z,22.10
2022-11-25T08:25:08.614Z,21.67
2022-11-25T08:27:36.987Z,18.10
2022-11-25T08:30:08.689Z,17.50
2022-11-25T08:32:39.119Z,17.73
2022-11-25T08:35:08.423Z,23.20
2022-11-25T08:37:37.325Z,16.67
2022-11-25T08:40:07.159Z,25.10
2022-11-25T08:42:35.587Z,14.27
2022-11-25T08:45:04.201Z,17.33
2022-11-25T08:47:34.100Z,21.13
2022-11-25T08:50:02.787Z,25.33
2022-11-25T08:52:31.423Z,21.33
2022-11-25T08:55:00.184Z,18.83
2022-11-25T08:57:28.942Z,17.97
2022-11-25T08:59:57.627Z,19.37
2022-11-25T09:02:26.389Z,18.53
2022-11-25T09:04:56.549Z,15.43
2022-11-25T09:07:30.538Z,16.40
2022-11-25T09:09:59.488Z,19.10
2022-11-25T09:12:29.060Z,20.37
2022-11-25T09:14:57.676Z,20.67
2022-11-25T09:17:26.210Z,21.60
2022-11-25T09:19:56.157Z,15.57
2022-11-25T09:22:24.792Z,23.57
2022-11-25T09:24:53.299Z,20.63
2022-11-25T09:27:21.849Z,17.47
2022-11-25T09:29:50.422Z,18.97
2022-11-25T09:32:18.968Z,19.07
2022-11-25T09:34:47.456Z,21.83
2022-11-25T09:37:17.398Z,13.73
2022-11-25T09:39:46.040Z,16.60
2022-11-25T09:42:47.019Z,18.27
2022-11-25T09:45:39.024Z,23.13
2022-11-25T09:48:23.274Z,16.90
2022-11-25T09:51:02.600Z,19.60
2022-11-25T09:53:44.356Z,18.07
2022-11-25T09:56:21.166Z,14.33
2022-11-25T09:58:53.525Z,14.93
2022-11-25T10:01:26.226Z,17.13
2022-11-25T10:03:59.799Z,21.83
2022-11-25T10:06:30.888Z,31.40
2022-11-25T10:09:03.918Z,21.33
2022-11-25T10:11:45.623Z,14.23
2022-11-25T10:14:19.559Z,19.63
2022-11-25T10:16:52.884Z,15.73
2022-11-25T10:19:33.703Z,23.10
2022-11-25T10:22:12.967Z,20.13
2022-11-25T10:24:43.287Z,21.13
2022-11-25T10:27:19.295Z,13.90
2022-11-25T10:29:57.609Z,15.93
2022-11-25T10:32:29.998Z,9.90
2022-11-25T10:35:01.995Z,19.00
2022-11-25T10:37:34.771Z,19.40
2022-11-25T10:40:05.167Z,16.37
2022-11-25T10:42:37.139Z,17.03
2022-11-25T10:45:09.225Z,16.43
2022-11-25T10:47:45.670Z,21.20
2022-11-25T10:50:21.415Z,18.80
2022-11-25T10:52:55.313Z,14.40
2022-11-25T10:55:26.878Z,16.00
2022-11-25T10:57:55.785Z,16.67
2022-11-25T11:00:42.178Z,19.10
2022-11-25T11:03:17.107Z,17.90
2022-11-25T11:05:47.912Z,14.93
2022-11-25T11:08:22.673Z,16.27
2022-11-25T11:11:16.718Z,20.80
2022-11-25T11:13:45.901Z,18.30
2022-11-25T11:16:29.666Z,17.77
2022-11-25T11:19:01.034Z,16.70
2022-11-25T11:21:34.850Z,14.27
2022-11-25T11:24:05.034Z,15.87
2022-11-25T11:26:36.671Z,14.07
2022-11-25T11:29:14.641Z,14.43
2022-11-25T11:31:49.992Z,10.37
2022-11-25T11:34:35.293Z,13.53
2022-11-25T11:37:23.964Z,15.90
2022-11-25T11:40:10.754Z,14.50
2022-11-25T11:42:51.341Z,13.73
2022-11-25T11:45:40.295Z,17.03
2022-11-25T11:48:14.557Z,20.80
2022-11-25T11:50:54.696Z,12.47
2022-11-25T11:53:31.574Z,16.40
2022-11-25T11:56:33.780Z,10.20
2022-11-25T11:59:12.015Z,12.20
2022-11-25T12:01:51.714Z,14.20
2022-11-25T12:04:27.477Z,12.30
2022-11-25T12:07:04.048Z,13.83
2022-11-25T12:09:37.995Z,15.30
2022-11-25T12:12:12.846Z,13.00
2022-11-25T12:14:46.806Z,13.13
2022-11-25T12:17:20.674Z,16.87
2022-11-25T12:19:58.773Z,14.60
2022-11-25T12:22:30.940Z,17.07
2022-11-25T12:25:06.385Z,19.60
2022-11-25T12:27:37.502Z,15.43
2022-11-25T12:30:11.734Z,12.13
2022-11-25T12:32:52.948Z,10.83
2022-11-25T12:35:35.053Z,12.77
2022-11-25T12:38:12.468Z,16.43
2022-11-25T12:40:46.960Z,15.67
2022-11-25T12:43:27.101Z,15.00
2022-11-25T12:46:07.037Z,12.00
2022-11-25T12:48:40.749Z,14.50
2022-11-25T12:51:20.517Z,9.37
2022-11-25T12:54:01.131Z,14.97
2022-11-25T12:56:50.070Z,12.97
2022-11-25T12:59:50.913Z,9.13
2022-11-25T13:02:48.032Z,11.37
2022-11-25T13:05:51.229Z,11.80
2022-11-25T13:08:32.506Z,14.40
2022-11-25T13:11:17.981Z,15.60
2022-11-25T13:13:54.862Z,13.27
2022-11-25T13:16:24.565Z,10.30
2022-11-25T13:18:57.205Z,12.27
2022-11-25T13:21:28.511Z,14.17
2022-11-25T13:23:59.125Z,9.53
2022-11-25T13:26:51.942Z,14.57
2022-11-25T13:30:00.566Z,10.37
2022-11-25T13:32:42.712Z,17.07
2022-11-25T13:35:52.734Z,8.03
2022-11-25T13:38:40.287Z,9.37
2022-11-25T13:41:38.169Z,12.23
2022-11-25T13:44:12.217Z,8.90
2022-11-25T13:46:44.739Z,8.27
2022-11-25T13:49:27.045Z,19.03
2022-11-25T13:51:59.806Z,10.43
2022-11-25T13:54:36.152Z,18.27
2022-11-25T13:57:36.063Z,10.80
2022-11-25T14:00:09.203Z,8.87
2022-11-25T14:02:49.586Z,17.30
2022-11-25T14:05:54.085Z,7.27
2022-11-25T14:08:31.963Z,8.17
2022-11-25T14:11:24.788Z,15.67
2022-11-25T14:14:05.126Z,16.80
2022-11-25T14:16:45.383Z,10.47
2022-11-25T14:19:55.553Z,12.30
2022-11-25T14:22:40.179Z,14.40
2022-11-25T14:25:22.975Z,9.67
2022-11-25T14:28:03.667Z,10.60
2022-11-25T14:30:33.936Z,7.23
2022-11-25T14:33:06.011Z,13.40
2022-11-25T14:35:45.420Z,12.93
2022-11-25T14:38:19.094Z,13.83
2022-11-25T14:40:55.564Z,10.30
2022-11-25T14:43:26.296Z,9.00
2022-11-25T14:46:15.581Z,10.97
2022-11-25T14:48:45.319Z,15.03
2022-11-25T14:51:15.036Z,9.40
2022-11-25T14:53:48.074Z,20.90
2022-11-25T14:56:25.408Z,12.13
2022-11-25T14:58:57.254Z,13.07
2022-11-25T15:01:27.668Z,16.63
2022-11-25T15:04:04.955Z,11.73
2022-11-25T15:06:38.587Z,10.53
2022-11-25T15:09:20.259Z,12.93
2022-11-25T15:11:55.004Z,12.47
2022-11-25T15:14:28.583Z,14.17
2022-11-25T15:16:58.712Z,21.73
2022-11-25T15:19:33.778Z,10.17
2022-11-25T15:22:22.636Z,11.50
2022-11-25T15:24:55.833Z,12.57
2022-11-25T15:27:29.581Z,12.23
2022-11-25T15:29:59.624Z,14.60
2022-11-25T15:32:29.666Z,14.10
2022-11-25T15:35:01.538Z,14.27
2022-11-25T15:37:30.281Z,12.80
2022-11-25T15:40:33.195Z,16.43
2022-11-25T15:43:05.977Z,18.77
2022-11-25T15:45:43.680Z,10.50
2022-11-25T15:48:18.287Z,13.73
2022-11-25T15:50:46.895Z,24.23
2022-11-25T15:53:30.158Z,18.43
2022-11-25T15:56:02.878Z,23.40
2022-11-25T15:58:32.919Z,20.83
2022-11-25T16:01:03.624Z,20.33
2022-11-25T16:03:33.628Z,19.30
2022-11-25T16:06:03.864Z,16.50
2022-11-25T16:08:37.569Z,16.17
2022-11-25T16:11:16.167Z,14.30
2022-11-25T16:13:46.943Z,15.93
2022-11-25T16:16:24.520Z,14.60
2022-11-25T16:19:13.001Z,26.03
2022-11-25T16:21:51.745Z,17.93
2022-11-25T16:24:42.157Z,19.67
2022-11-25T16:27:20.665Z,21.80
2022-11-25T16:29:53.364Z,19.47
2022-11-25T16:32:24.501Z,20.47
2022-11-25T16:34:56.185Z,24.37
2022-11-25T16:37:25.361Z,16.47
2022-11-25T16:39:54.447Z,19.83
2022-11-25T16:42:23.764Z,17.13
2022-11-25T16:44:53.960Z,16.13
2022-11-25T16:47:25.730Z,19.00
2022-11-25T16:49:54.432Z,22.60
2022-11-25T16:52:23.254Z,18.90
2022-11-25T16:54:51.779Z,21.43
2022-11-25T16:57:22.910Z,16.73
2022-11-25T16:59:58.929Z,18.20
2022-11-25T17:02:27.834Z,16.47
2022-11-25T17:04:58.984Z,21.50
2022-11-25T17:07:34.883Z,17.60
2022-11-25T17:10:03.636Z,15.37
2022-11-25T17:12:35.091Z,19.70
2022-11-25T17:15:09.312Z,17.33
2022-11-25T17:17:38.057Z,19.93
2022-11-25T17:20:11.279Z,21.77
2022-11-25T17:22:39.849Z,22.93
2022-11-25T17:25:09.235Z,15.70
2022-11-25T17:27:37.765Z,23.10
2022-11-25T17:30:14.262Z,20.20
2022-11-25T17:32:42.900Z,35.10
2022-11-25T17:35:18.962Z,23.03
2022-11-25T17:37:48.211Z,19.43
2022-11-25T17:40:17.307Z,24.43
2022-11-25T17:42:48.424Z,24.90
2022-11-25T17:45:20.611Z,22.20
2022-11-25T17:47:49.570Z,16.93
2022-11-25T17:50:20.592Z,19.70
2022-11-25T17:52:49.834Z,22.07
2022-11-25T17:55:19.943Z,19.80
2022-11-25T17:57:48.903Z,19.17
2022-11-25T18:00:22.133Z,20.83
2022-11-25T18:02:51.424Z,17.43
2022-11-25T18:05:21.774Z,25.87
2022-11-25T18:07:50.437Z,19.03
2022-11-25T18:10:20.838Z,18.67
2022-11-25T18:12:52.299Z,17.13
2022-11-25T18:15:24.876Z,22.23
2022-11-25T18:18:00.059Z,25.33
2022-11-25T18:20:32.194Z,22.93
2022-11-25T18:23:01.510Z,18.40
2022-11-25T18:25:33.089Z,24.27
2022-11-25T18:28:03.194Z,18.83
2022-11-25T18:30:34.757Z,23.03
2022-11-25T18:33:06.452Z,26.47
2022-11-25T18:35:36.828Z,24.53
2022-11-25T18:38:06.171Z,25.07
2022-11-25T18:40:36.710Z,25.97
2022-11-25T18:43:06.382Z,21.93
2022-11-25T18:45:38.693Z,38.17
2022-11-25T18:48:15.507Z,29.77
2022-11-25T18:50:44.888Z,32.97
2022-11-25T18:53:14.073Z,25.10
2022-11-25T18:55:42.963Z,26.43
2022-11-25T18:58:17.176Z,30.33
2022-11-25T19:00:50.123Z,23.50
2022-11-25T19:03:21.337Z,21.57
2022-11-25T19:05:50.783Z,19.20
2022-11-25T19:08:19.816Z,23.20
2022-11-25T19:10:50.991Z,17.73
2022-11-25T19:13:23.497Z,24.70
2022-11-25T19:15:54.371Z,23.13
2022-11-25T19:18:26.167Z,25.93
2022-11-25T19:20:55.398Z,26.57
2022-11-25T19:23:28.019Z,23.90
2022-11-25T19:26:01.020Z,32.80
2022-11-25T19:28:31.341Z,29.70
2022-11-25T19:31:04.794Z,35.97
2022-11-25T19:33:36.692Z,27.57
2022-11-25T19:36:06.296Z,25.77
2022-11-25T19:38:34.980Z,34.73
2022-11-25T19:41:03.694Z,27.80
2022-11-25T19:43:32.952Z,33.77
2022-11-25T19:46:03.591Z,25.77
2022-11-25T19:48:39.009Z,36.77
2022-11-25T19:51:07.564Z,32.90
2022-11-25T19:53:35.973Z,28.87
2022-11-25T19:56:05.124Z,33.97
2022-11-25T19:58:34.157Z,32.27
2022-11-25T20:01:06.402Z,33.60
2022-11-25T20:03:36.977Z,34.63
2022-11-25T20:06:07.067Z,33.43
2022-11-25T20:08:35.705Z,38.50
2022-11-25T20:11:05.007Z,27.43
2022-11-25T20:13:34.760Z,32.30
2022-11-25T20:16:05.136Z,35.67
2022-11-25T20:18:41.752Z,26.47
2022-11-25T20:21:19.037Z,35.07
2022-11-25T20:23:50.163Z,24.90
2022-11-25T20:26:25.769Z,24.30
2022-11-25T20:28:54.359Z,37.40
2022-11-25T20:31:30.195Z,29.83
2022-11-25T20:34:05.985Z,20.87
2022-11-25T20:36:37.167Z,22.43
2022-11-25T20:39:18.881Z,25.07
2022-11-25T20:41:51.121Z,21.53
2022-11-25T20:44:21.295Z,20.73
2022-11-25T20:46:59.104Z,20.53
2022-11-25T20:49:35.128Z,17.37
2022-11-25T20:52:04.717Z,16.50
2022-11-25T20:54:37.132Z,33.80
2022-11-25T20:57:10.664Z,32.23
2022-11-25T20:59:39.571Z,27.70
2022-11-25T21:02:09.703Z,28.20
2022-11-25T21:04:39.783Z,27.80
2022-11-25T21:07:15.925Z,34.23
2022-11-25T21:09:45.290Z,42.60
2022-11-25T21:12:19.195Z,37.20
2022-11-25T21:14:48.861Z,30.87
2022-11-25T21:17:19.972Z,22.50
2022-11-25T21:19:49.362Z,23.63
2022-11-25T21:22:19.103Z,21.10
2022-11-25T21:24:48.756Z,21.77
2022-11-25T21:27:20.000Z,22.20
2022-11-25T21:29:50.848Z,23.90
2022-11-25T21:32:24.735Z,26.50
2022-11-25T21:34:55.626Z,28.87
2022-11-25T21:37:31.627Z,20.00
2022-11-25T21:40:02.863Z,28.40
2022-11-25T21:42:35.324Z,23.53
2022-11-25T21:45:12.289Z,29.30
2022-11-25T21:47:42.370Z,79.40
2022-11-25T21:50:16.075Z,47.87
2022-11-25T21:52:45.419Z,42.73
2022-11-25T21:55:15.182Z,37.33
2022-11-25T21:57:44.221Z,39.30
2022-11-25T22:00:23.342Z,37.33
2022-11-25T22:02:53.976Z,40.13
2022-11-25T22:05:25.697Z,44.03
2022-11-25T22:07:55.366Z,36.57
2022-11-25T22:10:25.365Z,41.47
2022-11-25T22:12:54.227Z,40.73
2022-11-25T22:15:24.596Z,43.93
2022-11-25T22:17:58.904Z,39.00
2022-11-25T22:20:30.479Z,41.67
2022-11-25T22:22:59.299Z,36.17
2022-11-25T22:25:31.283Z,34.27
2022-11-25T22:28:00.235Z,41.93
2022-11-25T22:30:29.134Z,37.77
2022-11-25T22:33:02.980Z,40.60
2022-11-25T22:35:31.511Z,35.00
2022-11-25T22:37:59.992Z,40.00
2022-11-25T22:40:28.790Z,44.23
2022-11-25T22:42:58.284Z,39.97
2022-11-25T22:45:32.394Z,39.63
2022-11-25T22:48:06.324Z,40.50
2022-11-25T22:50:36.443Z,46.90
2022-11-25T22:53:17.952Z,41.23
2022-11-25T22:55:47.228Z,40.20
2022-11-25T22:58:16.035Z,49.77
2022-11-25T23:00:46.739Z,34.53
2022-11-25T23:03:20.932Z,36.80
2022-11-25T23:05:51.618Z,55.83
2022-11-25T23:08:21.887Z,42.10
2022-11-25T23:10:51.929Z,39.43
2022-11-25T23:13:21.086Z,48.97
2022-11-25T23:15:53.371Z,33.33
2022-11-25T23:18:27.443Z,42.20
2022-11-25T23:20:56.495Z,45.53
2022-11-25T23:23:27.852Z,42.30
2022-11-25T23:25:57.474Z,43.93
2022-11-25T23:28:26.575Z,50.50
2022-11-25T23:30:57.153Z,51.87
2022-11-25T23:33:31.745Z,40.80
2022-11-25T23:36:04.815Z,48.60
2022-11-25T23:38:42.882Z,47.73
2022-11-25T23:41:15.919Z,44.13
2022-11-25T23:43:46.821Z,47.23
2022-11-25T23:46:18.177Z,40.20
2022-11-25T23:48:54.320Z,45.60
2022-11-25T23:51:24.712Z,38.03
2022-11-25T23:53:53.749Z,39.63
2022-11-25T23:56:22.793Z,55.47
2022-11-25T23:58:51.416Z,41.20
